Time;durP1;ratioP1;P1;durP2;ratioP2;P2;SDS_P1;SDS_P2;PMS_P1;PMS_P2;Temp;Humidity;BMP_temperature;BMP_pressure;BME280_temperature;BME280_humidity;BME280_pressure;Samples;Min_cycle;Max_cycle;Signal;HPM_P1;HPM_P2
2023/01/24 00:01:13;;;;;;;28.83;18.47;;;12.30;52.60;;;;;;4993302;28;20515;-79
2023/01/24 00:03:41;;;;;;;27.83;17.57;;;12.30;52.60;;;;;;4988436;28;20465;-78
2023/01/24 00:06:09;;;;;;;27.50;16.10;;;12.30;52.40;;;;;;4992860;28;20532;-81
2023/01/24 00:08:38;;;;;;;26.17;16.33;;;12.40;52.50;;;;;;4999648;28;20469;-81
2023/01/24 00:11:08;;;;;;;28.33;15.77;;;12.40;52.40;;;;;;4999956;28;20512;-81
2023/01/24 00:13:36;;;;;;;34.67;19.00;;;12.40;52.30;;;;;;4998094;28;20462;-81
2023/01/24 00:16:08;;;;;;;35.93;20.20;;;12.40;52.60;;;;;;4998848;28;20519;-80
2023/01/24 00:18:36;;;;;;;31.60;18.10;;;12.40;52.40;;;;;;4998821;28;20448;-80
2023/01/24 00:21:08;;;;;;;34.50;17.30;;;12.40;52.40;;;;;;4994238;28;20478;-79
2023/01/24 00:23:39;;;;;;;31.93;17.30;;;12.40;52.40;;;;;;4999791;28;20461;-80
2023/01/24 00:26:07;;;;;;;27.20;16.47;;;12.40;52.30;;;;;;4999040;28;20476;-80
2023/01/24 00:28:35;;;;;;;29.67;16.17;;;12.40;52.30;;;;;;4994224;28;20538;-80
2023/01/24 00:31:04;;;;;;;27.73;16.80;;;12.40;52.30;;;;;;4996858;28;20569;-80
2023/01/24 00:33:32;;;;;;;27.40;15.53;;;12.40;52.20;;;;;;5001348;28;20456;-80
2023/01/24 00:36:00;;;;;;;30.43;16.20;;;12.40;52.30;;;;;;4996486;28;20614;-80
2023/01/24 00:38:29;;;;;;;32.37;18.93;;;12.40;52.10;;;;;;4995732;28;20467;-79
2023/01/24 00:40:59;;;;;;;56.13;31.33;;;12.40;52.20;;;;;;4996134;28;20481;-80
2023/01/24 00:43:27;;;;;;;66.90;35.43;;;12.40;52.40;;;;;;4997534;28;20484;-80
2023/01/24 00:45:55;;;;;;;62.67;33.80;;;12.40;52.40;;;;;;4995896;28;20476;-80
2023/01/24 00:48:24;;;;;;;78.83;38.93;;;12.50;52.30;;;;;;4994449;28;20461;-78
2023/01/24 00:50:52;;;;;;;59.27;31.47;;;12.40;52.40;;;;;;4994002;28;20483;-79
2023/01/24 00:53:20;;;;;;;62.10;29.30;;;12.50;52.20;;;;;;4993457;28;20472;-80
2023/01/24 00:55:48;;;;;;;41.80;23.90;;;12.40;52.50;;;;;;4997686;28;20489;-78
2023/01/24 00:58:18;;;;;;;38.37;21.90;;;12.50;52.30;;;;;;4997569;28;20544;-79
2023/01/24 01:00:46;;;;;;;35.03;20.50;;;12.50;52.30;;;;;;4999458;28;20470;-80
2023/01/24 01:03:15;;;;;;;30.30;17.97;;;12.50;52.30;;;;;;5002153;28;20460;-81
2023/01/24 01:05:44;;;;;;;28.70;17.27;;;12.50;52.30;;;;;;4996708;28;20464;-78
2023/01/24 01:08:12;;;;;;;28.23;17.50;;;12.50;52.20;;;;;;4996621;28;20468;-79
2023/01/24 01:10:40;;;;;;;28.03;15.63;;;12.50;52.20;;;;;;5001057;28;20480;-81
2023/01/24 01:13:09;;;;;;;25.47;14.90;;;12.50;52.20;;;;;;4995606;28;20446;-79
2023/01/24 01:15:38;;;;;;;28.57;17.40;;;12.50;51.80;;;;;;4999340;28;20450;-81
2023/01/24 01:18:06;;;;;;;23.80;15.03;;;12.50;51.80;;;;;;4994798;28;20508;-79
2023/01/24 01:20:34;;;;;;;26.97;15.70;;;12.40;51.80;;;;;;4999575;28;20473;-79
2023/01/24 01:23:02;;;;;;;25.90;15.03;;;12.40;52.00;;;;;;4995103;28;20462;-80
2023/01/24 01:25:30;;;;;;;22.70;13.77;;;12.40;52.00;;;;;;4994792;28;20487;-79
2023/01/24 01:27:58;;;;;;;24.10;14.60;;;12.40;52.00;;;;;;4991493;28;20472;-79
2023/01/24 01:30:26;;;;;;;21.83;14.60;;;12.40;52.20;;;;;;4989835;28;20481;-78
2023/01/24 01:32:56;;;;;;;23.57;15.03;;;12.40;51.60;;;;;;4983752;28;20453;-78
2023/01/24 01:35:23;;;;;;;26.07;15.60;;;12.40;51.40;;;;;;4990486;28;20452;-77
2023/01/24 01:37:51;;;;;;;32.87;15.30;;;12.30;52.00;;;;;;4989563;28;20457;-78
2023/01/24 01:40:19;;;;;;;25.13;15.37;;;12.40;51.80;;;;;;4989874;28;20471;-78
2023/01/24 01:42:51;;;;;;;27.70;14.73;;;12.40;51.60;;;;;;4993245;28;20453;-78
2023/01/24 01:45:34;;;;;;;25.20;14.60;;;12.30;51.80;;;;;;4992364;28;20461;-77
2023/01/24 01:48:06;;;;;;;25.50;14.97;;;12.30;52.10;;;;;;4992575;28;20457;-78
2023/01/24 01:50:35;;;;;;;25.70;14.30;;;12.30;52.30;;;;;;4993359;28;20481;-78
2023/01/24 01:53:03;;;;;;;22.10;13.33;;;12.30;51.50;;;;;;4990907;28;20454;-78
2023/01/24 01:55:32;;;;;;;23.60;14.00;;;12.30;51.80;;;;;;4992280;28;20563;-79
2023/01/24 01:58:00;;;;;;;21.83;13.80;;;12.30;51.60;;;;;;4990044;28;20465;-79
2023/01/24 02:00:28;;;;;;;24.50;13.90;;;12.30;51.30;;;;;;4991624;28;20474;-79
2023/01/24 02:03:37;;;;;;;22.87;13.97;;;12.20;51.70;;;;;;4989513;28;20503;-78
2023/01/24 02:05:49;;;;;;;24.03;13.93;;;12.20;51.50;;;;;;4990929;28;20533;-80
2023/01/24 02:08:19;;;;;;;23.60;14.20;;;12.20;51.80;;;;;;4993420;28;20449;-78
2023/01/24 02:13:34;;;;;;;22.93;14.30;;;12.20;51.20;;;;;;4990912;28;20456;-79
2023/01/24 02:16:02;;;;;;;19.80;12.80;;;12.20;51.30;;;;;;4992807;28;20453;-79
2023/01/24 02:18:30;;;;;;;19.57;13.23;;;12.20;51.40;;;;;;4991093;28;20449;-79
2023/01/24 02:20:59;;;;;;;27.63;14.43;;;12.20;51.20;;;;;;4992476;28;20461;-79
2023/01/24 02:23:32;;;;;;;22.27;12.97;;;12.20;51.50;;;;;;4989272;28;20461;-79
2023/01/24 02:26:06;;;;;;;21.73;12.27;;;12.30;51.00;;;;;;4991263;28;20464;-79
2023/01/24 02:28:33;;;;;;;21.70;13.47;;;12.30;51.00;;;;;;4991804;28;20457;-79
2023/01/24 02:31:01;;;;;;;18.87;11.83;;;12.30;51.10;;;;;;4990463;28;20473;-78
2023/01/24 02:33:30;;;;;;;19.10;12.77;;;12.30;50.30;;;;;;4992230;28;20475;-78
2023/01/24 02:36:12;;;;;;;18.80;11.50;;;12.20;50.80;;;;;;4990040;28;20453;-78
2023/01/24 02:38:40;;;;;;;19.30;11.90;;;12.20;50.70;;;;;;4991076;28;20464;-78
2023/01/24 02:41:09;;;;;;;20.60;13.10;;;12.20;50.60;;;;;;4989431;28;20476;-79
2023/01/24 02:43:38;;;;;;;17.80;11.77;;;12.20;50.60;;;;;;4991754;28;20457;-78
2023/01/24 02:46:05;;;;;;;15.93;11.53;;;12.20;50.90;;;;;;4990983;28;20464;-77
2023/01/24 02:48:33;;;;;;;15.93;11.40;;;12.20;51.00;;;;;;4992195;28;20469;-78
2023/01/24 02:53:47;;;;;;;13.60;9.53;;;12.20;50.50;;;;;;4995432;28;20460;-77
2023/01/24 02:59:02;;;;;;;13.50;9.50;;;12.30;49.90;;;;;;4990493;28;20449;-78
2023/01/24 03:01:30;;;;;;;13.63;9.80;;;12.10;49.70;;;;;;4988505;28;20460;-78
2023/01/24 03:03:59;;;;;;;12.50;9.07;;;12.10;49.90;;;;;;4991333;28;20449;-78
2023/01/24 03:06:26;;;;;;;14.40;9.47;;;12.20;50.10;;;;;;4992138;28;20453;-78
2023/01/24 03:08:54;;;;;;;11.83;9.03;;;12.20;49.80;;;;;;4985781;28;20449;-79
2023/01/24 03:11:23;;;;;;;16.30;10.10;;;12.20;49.60;;;;;;4991492;28;20484;-78
2023/01/24 03:36:06;;;;;;;14.27;10.27;;;12.20;49.40;;;;;;4995638;28;20544;-78
2023/01/24 03:41:19;;;;;;;16.30;10.70;;;12.20;49.30;;;;;;4996139;28;20476;-78
2023/01/24 03:43:49;;;;;;;15.43;10.70;;;12.20;49.10;;;;;;4995500;28;20457;-77
2023/01/24 03:46:17;;;;;;;13.80;10.00;;;12.30;49.10;;;;;;4994108;28;20450;-78
2023/01/24 03:48:45;;;;;;;15.40;10.30;;;12.20;48.80;;;;;;4998329;28;20469;-79
2023/01/24 03:53:58;;;;;;;15.93;9.70;;;12.30;48.60;;;;;;4986977;28;20436;-78
2023/01/24 03:56:26;;;;;;;14.90;9.53;;;12.20;48.80;;;;;;4995161;28;20480;-78
2023/01/24 03:58:55;;;;;;;13.13;9.33;;;12.20;48.90;;;;;;4994894;28;20463;-78
2023/01/24 04:01:23;;;;;;;11.37;8.37;;;12.20;48.80;;;;;;4993849;28;20473;-78
2023/01/24 04:03:51;;;;;;;12.20;9.70;;;12.20;48.80;;;;;;4992367;28;20536;-79
2023/01/24 04:06:19;;;;;;;14.10;9.33;;;12.20;48.50;;;;;;4993593;28;20464;-78
2023/01/24 04:08:46;;;;;;;12.50;9.13;;;12.10;48.90;;;;;;4995304;28;20449;-79
2023/01/24 04:11:14;;;;;;;11.83;8.60;;;12.20;49.00;;;;;;4995142;28;20488;-79
2023/01/24 04:13:42;;;;;;;12.70;9.40;;;12.20;49.00;;;;;;4990947;28;20466;-78
2023/01/24 04:16:12;;;;;;;12.90;9.40;;;12.20;49.00;;;;;;4995579;28;20453;-78
2023/01/24 04:18:40;;;;;;;13.00;9.03;;;12.20;48.40;;;;;;4996711;28;20476;-77
2023/01/24 04:21:08;;;;;;;11.53;8.80;;;12.20;49.00;;;;;;4990932;28;20461;-78
2023/01/24 04:23:36;;;;;;;10.67;8.30;;;12.20;49.00;;;;;;4996841;28;20461;-79
2023/01/24 04:26:04;;;;;;;14.10;8.30;;;12.30;48.90;;;;;;4996144;28;20472;-78
2023/01/24 04:28:32;;;;;;;10.40;8.40;;;12.30;48.60;;;;;;4996078;28;20448;-78
2023/01/24 04:31:01;;;;;;;11.73;8.23;;;12.30;48.50;;;;;;4996066;28;20480;-78
2023/01/24 04:33:30;;;;;;;10.83;7.80;;;12.30;47.80;;;;;;4996673;28;20477;-78
2023/01/24 04:35:58;;;;;;;10.67;8.20;;;12.30;48.10;;;;;;4988661;28;20437;-78
2023/01/24 04:38:26;;;;;;;11.57;8.80;;;12.30;47.90;;;;;;4992015;28;20440;-78
2023/01/24 04:40:58;;;;;;;9.77;7.80;;;12.30;47.90;;;;;;4994789;28;20455;-78
2023/01/24 04:43:26;;;;;;;12.30;8.47;;;12.20;47.60;;;;;;4990935;28;20446;-79
2023/01/24 04:45:56;;;;;;;12.63;8.80;;;12.20;48.30;;;;;;4994868;28;20458;-78
2023/01/24 04:48:25;;;;;;;11.77;8.57;;;12.20;48.10;;;;;;4995834;28;20465;-78
2023/01/24 04:50:58;;;;;;;13.50;9.00;;;12.20;48.20;;;;;;4995778;28;20469;-78
2023/01/24 04:53:26;;;;;;;11.60;8.60;;;12.20;48.00;;;;;;4993001;28;20461;-78
2023/01/24 04:55:53;;;;;;;13.73;9.50;;;12.30;47.90;;;;;;4993941;28;20477;-78
2023/01/24 04:58:22;;;;;;;13.20;9.17;;;12.20;47.70;;;;;;4988507;28;20823;-78
2023/01/24 05:00:49;;;;;;;13.30;9.30;;;12.20;47.80;;;;;;4994771;28;20488;-78
2023/01/24 05:03:17;;;;;;;13.57;9.97;;;12.30;47.80;;;;;;4998197;28;20472;-79
2023/01/24 05:05:49;;;;;;;15.27;9.60;;;12.20;47.40;;;;;;4994708;28;20452;-78
2023/01/24 05:08:19;;;;;;;13.23;9.90;;;12.20;47.60;;;;;;4991119;28;20480;-78
2023/01/24 05:10:47;;;;;;;14.10;10.00;;;12.20;47.80;;;;;;4994408;28;20484;-79
2023/01/24 05:13:14;;;;;;;13.87;9.27;;;12.20;47.30;;;;;;4992904;28;20472;-79
2023/01/24 05:15:47;;;;;;;13.30;9.47;;;12.20;47.60;;;;;;4995798;28;20465;-79
2023/01/24 05:18:15;;;;;;;11.33;9.07;;;12.20;47.40;;;;;;4996110;28;20457;-79
2023/01/24 05:20:43;;;;;;;14.17;9.93;;;12.20;47.10;;;;;;4993356;28;20488;-78
2023/01/24 05:23:11;;;;;;;15.20;9.50;;;12.10;47.60;;;;;;4993378;28;20458;-79
2023/01/24 05:25:40;;;;;;;15.27;10.87;;;12.10;47.60;;;;;;4994907;28;20477;-79
2023/01/24 05:28:08;;;;;;;14.20;10.27;;;12.10;47.60;;;;;;4995462;28;20449;-78
2023/01/24 05:30:36;;;;;;;14.83;10.33;;;12.10;47.70;;;;;;4995093;28;20491;-79
2023/01/24 05:33:04;;;;;;;15.93;11.07;;;12.10;47.80;;;;;;4995170;28;20497;-78
2023/01/24 05:35:32;;;;;;;16.33;10.90;;;12.20;47.20;;;;;;4994601;28;20457;-79
2023/01/24 05:38:00;;;;;;;16.40;11.53;;;12.10;47.60;;;;;;4993284;28;20453;-78
2023/01/24 05:40:28;;;;;;;17.30;12.07;;;12.10;47.70;;;;;;4988562;28;20473;-79
2023/01/24 05:42:58;;;;;;;19.00;12.50;;;12.20;47.20;;;;;;4992564;28;20449;-79
2023/01/24 05:45:26;;;;;;;15.63;11.43;;;12.20;47.50;;;;;;4993822;28;20460;-79
2023/01/24 05:47:56;;;;;;;15.70;11.70;;;12.10;47.40;;;;;;4993968;28;20468;-79
2023/01/24 05:50:24;;;;;;;17.33;11.87;;;12.10;47.40;;;;;;4994259;28;20474;-79
2023/01/24 05:52:51;;;;;;;16.27;11.83;;;12.10;47.70;;;;;;4991927;28;20469;-79
2023/01/24 05:55:19;;;;;;;20.23;12.63;;;12.10;47.60;;;;;;4994681;28;20484;-78
2023/01/24 05:57:48;;;;;;;18.63;13.50;;;12.10;47.70;;;;;;4992140;28;20461;-79
2023/01/24 06:00:18;;;;;;;18.80;12.87;;;12.20;47.70;;;;;;4993270;28;20477;-79
2023/01/24 06:02:47;;;;;;;31.00;15.50;;;12.20;46.90;;;;;;4992526;28;20460;-79
2023/01/24 06:05:15;;;;;;;22.10;14.43;;;12.20;47.00;;;;;;4994407;28;20548;-79
2023/01/24 06:07:43;;;;;;;20.63;14.53;;;12.10;47.00;;;;;;4995191;28;20449;-79
2023/01/24 06:10:11;;;;;;;23.27;15.20;;;12.10;46.90;;;;;;4987112;28;20469;-79
2023/01/24 06:12:39;;;;;;;23.37;14.77;;;12.10;46.90;;;;;;4994925;28;20473;-79
2023/01/24 06:15:08;;;;;;;22.80;15.47;;;12.10;46.90;;;;;;4991942;28;20457;-79
2023/01/24 06:17:38;;;;;;;21.77;14.07;;;12.10;47.00;;;;;;4993058;28;20464;-79
2023/01/24 06:20:07;;;;;;;23.43;14.77;;;12.10;47.20;;;;;;4992309;28;20477;-79
2023/01/24 06:22:37;;;;;;;24.40;15.03;;;12.10;47.10;;;;;;4991009;28;20460;-79
2023/01/24 06:25:10;;;;;;;23.90;15.97;;;12.20;47.10;;;;;;4992305;28;20469;-78
2023/01/24 06:27:38;;;;;;;25.77;15.70;;;12.10;46.60;;;;;;4992231;28;20480;-79
2023/01/24 06:30:09;;;;;;;22.53;14.20;;;12.10;47.10;;;;;;4989450;28;20484;-78
2023/01/24 06:32:41;;;;;;;23.33;14.70;;;12.10;47.20;;;;;;4992587;28;20464;-79
2023/01/24 06:35:14;;;;;;;24.50;15.47;;;12.10;46.70;;;;;;4990648;28;20461;-80
2023/01/24 06:37:45;;;;;;;23.97;15.10;;;12.00;47.20;;;;;;4995598;28;20456;-79
2023/01/24 06:40:14;;;;;;;23.87;15.10;;;12.00;47.30;;;;;;4992481;28;20473;-79
2023/01/24 06:42:43;;;;;;;23.40;14.60;;;12.00;47.20;;;;;;4990893;28;20456;-78
2023/01/24 06:45:12;;;;;;;20.17;13.60;;;12.10;46.70;;;;;;4989951;28;20452;-79
2023/01/24 06:47:41;;;;;;;19.57;13.57;;;12.00;46.90;;;;;;4992214;28;20449;-79
2023/01/24 06:50:13;;;;;;;20.67;14.10;;;12.00;46.90;;;;;;4992715;28;20484;-78
2023/01/24 06:52:40;;;;;;;23.10;14.70;;;11.90;47.10;;;;;;4993371;28;20465;-79
2023/01/24 06:55:08;;;;;;;22.43;13.63;;;12.00;47.10;;;;;;4991200;28;20480;-78
2023/01/24 06:57:36;;;;;;;21.27;13.10;;;12.00;47.30;;;;;;4992069;28;20461;-79
2023/01/24 07:00:05;;;;;;;21.10;13.13;;;12.00;47.30;;;;;;4991439;28;20475;-79
2023/01/24 07:02:33;;;;;;;19.13;13.27;;;12.10;47.80;;;;;;4993197;28;20459;-79
2023/01/24 07:05:02;;;;;;;19.53;13.10;;;12.10;46.60;;;;;;4996598;28;20532;-78
2023/01/24 07:07:30;;;;;;;20.60;13.80;;;12.00;47.10;;;;;;4996519;28;20458;-78
2023/01/24 07:09:58;;;;;;;21.20;13.30;;;12.00;46.90;;;;;;4996690;28;20480;-79
2023/01/24 07:12:26;;;;;;;20.00;13.40;;;12.10;47.20;;;;;;4992147;28;20457;-79
2023/01/24 07:14:54;;;;;;;19.97;13.67;;;12.10;47.10;;;;;;4999357;28;20473;-79
2023/01/24 07:17:22;;;;;;;28.27;15.30;;;12.10;47.50;;;;;;4997085;28;20457;-79
2023/01/24 07:19:51;;;;;;;24.80;15.47;;;12.10;47.40;;;;;;4996210;28;20477;-79
2023/01/24 07:22:21;;;;;;;22.33;14.47;;;12.10;47.40;;;;;;4997304;28;20453;-78
2023/01/24 07:24:49;;;;;;;26.43;14.87;;;12.00;47.50;;;;;;4995451;28;20460;-78
2023/01/24 07:27:18;;;;;;;22.07;13.87;;;12.00;47.50;;;;;;4996109;28;20457;-79
2023/01/24 07:29:46;;;;;;;21.30;13.60;;;12.00;47.70;;;;;;4996128;28;20480;-79
2023/01/24 07:32:14;;;;;;;19.97;13.50;;;12.00;47.40;;;;;;4998227;28;20461;-79
2023/01/24 07:34:42;;;;;;;24.50;14.20;;;12.00;47.50;;;;;;4996246;28;20473;-79
2023/01/24 07:37:11;;;;;;;21.83;14.87;;;12.00;47.70;;;;;;4994064;28;20453;-78
2023/01/24 07:39:40;;;;;;;24.03;15.57;;;12.10;47.60;;;;;;4996480;28;20472;-79
2023/01/24 07:42:08;;;;;;;23.07;15.47;;;12.10;47.30;;;;;;4996210;28;20449;-79
2023/01/24 07:44:35;;;;;;;23.10;15.20;;;12.10;47.10;;;;;;4998281;28;20450;-79
2023/01/24 07:47:03;;;;;;;23.17;14.73;;;12.00;48.00;;;;;;4996911;28;20460;-79
2023/01/24 07:49:31;;;;;;;25.60;15.80;;;12.00;47.40;;;;;;4996231;28;20488;-79
2023/01/24 07:51:59;;;;;;;31.23;18.77;;;12.00;46.90;;;;;;4995374;28;20479;-79
2023/01/24 07:54:27;;;;;;;39.57;22.40;;;12.00;47.70;;;;;;4997169;28;20485;-79
2023/01/24 07:56:56;;;;;;;37.30;19.60;;;12.10;47.60;;;;;;4996502;28;20476;-79
2023/01/24 07:59:25;;;;;;;30.10;18.03;;;12.10;47.60;;;;;;4993240;28;20863;-79
2023/01/24 08:02:05;;;;;;;29.60;18.03;;;12.10;47.40;;;;;;4997424;28;20507;-78
2023/01/24 08:04:33;;;;;;;29.10;17.33;;;12.20;47.00;;;;;;4997011;28;20508;-78
2023/01/24 08:07:17;;;;;;;26.90;16.67;;;12.20;47.20;;;;;;4997982;28;20453;-79
2023/01/24 08:09:46;;;;;;;25.03;15.97;;;12.20;47.40;;;;;;5003190;28;20463;-80
2023/01/24 08:12:15;;;;;;;24.00;14.77;;;12.10;47.10;;;;;;4991961;28;20441;-79
2023/01/24 08:14:43;;;;;;;23.47;15.00;;;12.20;47.00;;;;;;4997827;28;20552;-79
2023/01/24 08:17:11;;;;;;;21.70;14.93;;;12.20;46.90;;;;;;4998081;28;20448;-79
2023/01/24 08:19:39;;;;;;;27.53;14.83;;;12.10;46.90;;;;;;4992355;28;20477;-79
2023/01/24 08:22:23;;;;;;;22.90;15.00;;;12.10;47.10;;;;;;4998696;28;20442;-79
2023/01/24 08:24:51;;;;;;;20.60;13.93;;;12.10;47.30;;;;;;4998738;28;20446;-79
2023/01/24 08:27:21;;;;;;;25.00;15.60;;;12.10;47.00;;;;;;5003395;28;20465;-79
2023/01/24 08:29:49;;;;;;;25.53;15.23;;;12.10;46.50;;;;;;4998540;28;20469;-79
2023/01/24 08:32:17;;;;;;;25.33;15.87;;;12.10;47.00;;;;;;4995915;28;20512;-79
2023/01/24 08:34:45;;;;;;;22.73;15.47;;;12.10;47.40;;;;;;4996898;28;20512;-79
2023/01/24 08:37:13;;;;;;;26.47;14.97;;;12.10;47.00;;;;;;4994025;28;20454;-78
2023/01/24 08:39:41;;;;;;;23.67;15.50;;;12.20;46.30;;;;;;4995924;28;20480;-79
2023/01/24 08:42:09;;;;;;;23.83;15.80;;;12.10;47.20;;;;;;4995538;28;20548;-79
2023/01/24 08:44:38;;;;;;;27.60;16.57;;;12.10;46.70;;;;;;4997551;28;20464;-78
2023/01/24 08:47:07;;;;;;;26.03;16.30;;;12.10;46.90;;;;;;4997603;28;20469;-79
2023/01/24 08:49:34;;;;;;;24.87;14.97;;;12.10;46.90;;;;;;4991924;28;20493;-81
2023/01/24 08:52:03;;;;;;;22.50;14.30;;;12.20;46.90;;;;;;4992119;28;20453;-81
2023/01/24 08:54:32;;;;;;;22.93;15.50;;;12.20;46.60;;;;;;4993580;28;20488;-80
2023/01/24 08:57:00;;;;;;;23.20;14.57;;;12.20;46.80;;;;;;4995112;28;20469;-81
2023/01/24 08:59:28;;;;;;;22.33;14.80;;;12.20;46.90;;;;;;4993924;28;20487;-80
2023/01/24 09:01:57;;;;;;;21.87;14.60;;;12.20;46.60;;;;;;4995238;28;20946;-81
2023/01/24 09:04:26;;;;;;;21.80;13.90;;;12.10;46.50;;;;;;4992296;28;20449;-80
2023/01/24 09:06:53;;;;;;;23.53;15.03;;;12.10;46.30;;;;;;4992747;28;20433;-80
2023/01/24 09:09:21;;;;;;;24.17;15.10;;;12.10;46.50;;;;;;4981279;28;20573;-80
2023/01/24 09:11:49;;;;;;;26.00;16.00;;;12.10;46.80;;;;;;4991737;28;20540;-80
2023/01/24 09:14:17;;;;;;;24.43;15.83;;;12.10;47.00;;;;;;4989963;28;20465;-79
2023/01/24 09:16:45;;;;;;;24.20;15.30;;;12.20;47.00;;;;;;4985279;28;20456;-80
2023/01/24 09:19:15;;;;;;;23.07;14.90;;;12.10;46.50;;;;;;4996945;28;20536;-80
2023/01/24 09:21:43;;;;;;;26.57;16.17;;;12.10;46.30;;;;;;4997309;28;20512;-80
2023/01/24 09:24:11;;;;;;;28.03;15.57;;;12.10;46.20;;;;;;4986652;28;20437;-79
2023/01/24 09:26:40;;;;;;;29.93;17.80;;;12.00;46.60;;;;;;4990666;28;20472;-80
2023/01/24 09:29:08;;;;;;;25.27;17.10;;;12.10;46.60;;;;;;4990179;28;20855;-80
2023/01/24 09:31:39;;;;;;;24.43;16.43;;;12.10;46.50;;;;;;4996605;28;20441;-80
2023/01/24 09:34:07;;;;;;;23.40;15.43;;;12.10;46.50;;;;;;4995184;28;20968;-80
2023/01/24 09:36:36;;;;;;;26.90;16.90;;;12.20;46.00;;;;;;4996977;28;20446;-80
2023/01/24 09:39:04;;;;;;;25.30;15.47;;;12.10;46.00;;;;;;4995015;28;20437;-80
2023/01/24 09:41:40;;;;;;;26.53;16.07;;;12.00;46.80;;;;;;4995035;28;20466;-80
2023/01/24 09:44:12;;;;;;;23.00;15.13;;;12.10;46.60;;;;;;4997093;28;20441;-80
2023/01/24 09:46:43;;;;;;;24.80;15.80;;;12.10;46.60;;;;;;4996750;28;20461;-80
2023/01/24 09:49:14;;;;;;;23.30;15.17;;;12.10;46.70;;;;;;4995712;28;20468;-79
2023/01/24 09:51:46;;;;;;;22.37;14.90;;;12.10;46.10;;;;;;4996301;28;20452;-80
2023/01/24 09:54:17;;;;;;;24.77;14.63;;;12.10;46.20;;;;;;4995589;28;20464;-80
2023/01/24 09:56:47;;;;;;;20.50;14.17;;;12.00;46.30;;;;;;4992754;28;20473;-80
2023/01/24 09:59:20;;;;;;;23.80;14.70;;;12.00;46.70;;;;;;4992890;28;20438;-80
2023/01/24 10:01:48;;;;;;;25.30;16.23;;;12.10;46.60;;;;;;4987397;28;20444;-80
2023/01/24 10:04:17;;;;;;;24.67;15.87;;;12.10;46.40;;;;;;4990637;28;20429;-80
2023/01/24 10:06:57;;;;;;;25.50;16.47;;;12.20;46.60;;;;;;4992453;28;20433;-79
2023/01/24 10:09:28;;;;;;;27.80;18.30;;;12.10;46.20;;;;;;4992911;28;20470;-80
2023/01/24 10:12:00;;;;;;;28.00;18.20;;;12.10;46.90;;;;;;4993216;28;20464;-80
2023/01/24 10:14:43;;;;;;;28.53;17.70;;;12.10;47.10;;;;;;4993417;28;20448;-80
2023/01/24 10:17:44;;;;;;;27.40;16.77;;;12.20;46.70;;;;;;4996590;28;20446;-80
2023/01/24 10:20:31;;;;;;;28.03;18.13;;;12.20;46.40;;;;;;4982494;28;20468;-80
2023/01/24 10:23:05;;;;;;;25.33;16.20;;;12.20;46.50;;;;;;4993219;28;20477;-80
2023/01/24 10:25:45;;;;;;;31.33;18.43;;;12.20;46.80;;;;;;4997672;28;20472;-80
2023/01/24 10:28:16;;;;;;;30.90;17.53;;;12.20;46.10;;;;;;4996386;28;20453;-79
2023/01/24 10:30:47;;;;;;;26.57;17.10;;;12.10;46.30;;;;;;4995811;28;20465;-78
2023/01/24 10:33:17;;;;;;;28.27;17.37;;;12.10;47.00;;;;;;4996811;28;20433;-79
2023/01/24 10:35:53;;;;;;;31.40;18.83;;;12.20;46.80;;;;;;4988345;28;20489;-79
2023/01/24 10:38:22;;;;;;;36.57;21.37;;;12.20;46.30;;;;;;4987692;28;20440;-79
2023/01/24 10:40:51;;;;;;;35.37;21.70;;;12.20;46.90;;;;;;4986725;28;20470;-79
2023/01/24 10:43:20;;;;;;;31.53;19.20;;;12.30;46.00;;;;;;4990113;28;20448;-79
2023/01/24 10:45:50;;;;;;;30.00;18.90;;;12.20;46.40;;;;;;4992507;28;20442;-79
2023/01/24 10:48:25;;;;;;;28.57;18.00;;;12.10;45.90;;;;;;4988892;28;20446;-78
2023/01/24 10:50:53;;;;;;;26.03;16.30;;;12.00;46.80;;;;;;4992468;28;20476;-80
2023/01/24 10:53:25;;;;;;;29.40;16.17;;;12.00;45.90;;;;;;4993091;28;20821;-79
2023/01/24 10:55:58;;;;;;;28.23;18.60;;;12.00;46.50;;;;;;4994743;28;20768;-79
2023/01/24 10:58:28;;;;;;;26.37;17.03;;;12.10;46.10;;;;;;4995042;28;20461;-79
2023/01/24 11:00:57;;;;;;;28.40;16.53;;;12.10;45.90;;;;;;4986371;28;20462;-79
2023/01/24 11:03:27;;;;;;;24.07;15.97;;;12.00;46.20;;;;;;4987876;28;20552;-79
2023/01/24 11:05:56;;;;;;;26.57;16.77;;;12.10;45.70;;;;;;4995894;28;20438;-80
2023/01/24 11:08:27;;;;;;;25.33;15.70;;;12.00;46.20;;;;;;4987870;28;20456;-80
2023/01/24 11:10:57;;;;;;;23.07;15.93;;;12.10;46.20;;;;;;4995135;28;20467;-80
2023/01/24 11:13:31;;;;;;;26.30;16.77;;;12.20;46.10;;;;;;4988805;28;20441;-80
2023/01/24 11:16:02;;;;;;;29.30;16.70;;;12.20;45.90;;;;;;4992893;28;20477;-80
2023/01/24 11:18:31;;;;;;;26.43;16.30;;;12.30;45.40;;;;;;4995826;28;20445;-80
2023/01/24 11:21:11;;;;;;;24.03;15.73;;;12.20;46.00;;;;;;4994639;28;20465;-80
2023/01/24 11:23:40;;;;;;;20.83;14.10;;;12.20;45.90;;;;;;4995310;28;20472;-80
2023/01/24 11:26:21;;;;;;;23.30;15.30;;;12.20;46.40;;;;;;4993328;28;20465;-78
2023/01/24 11:28:56;;;;;;;25.03;14.40;;;12.30;46.20;;;;;;4994907;28;20453;-80
2023/01/24 11:31:28;;;;;;;28.67;15.57;;;12.30;45.80;;;;;;4986900;28;20461;-80
2023/01/24 11:34:07;;;;;;;22.00;14.23;;;12.20;45.80;;;;;;4995411;28;20437;-79
2023/01/24 11:36:39;;;;;;;21.33;14.17;;;12.20;46.20;;;;;;4988510;28;20555;-80
2023/01/24 11:39:14;;;;;;;23.27;14.57;;;12.20;46.20;;;;;;4993741;28;20443;-79
2023/01/24 11:41:45;;;;;;;33.43;18.33;;;12.30;46.20;;;;;;4994954;28;20457;-80
2023/01/24 11:44:48;;;;;;;32.10;18.60;;;12.40;46.50;;;;;;4993757;28;20433;-80
2023/01/24 11:47:16;;;;;;;26.63;15.70;;;12.50;45.70;;;;;;4986258;28;20942;-80
2023/01/24 11:50:09;;;;;;;22.47;14.00;;;12.40;45.50;;;;;;4996636;28;20472;-79
2023/01/24 11:52:46;;;;;;;23.47;14.70;;;12.30;46.10;;;;;;4993047;28;20456;-80
2023/01/24 11:55:19;;;;;;;22.20;14.20;;;12.40;46.30;;;;;;4993084;28;20461;-79
2023/01/24 11:57:51;;;;;;;20.13;13.00;;;12.40;46.00;;;;;;4998809;28;20449;-80
2023/01/24 12:00:23;;;;;;;20.70;12.67;;;12.40;46.10;;;;;;4995968;28;20556;-80
2023/01/24 12:03:17;;;;;;;21.80;13.70;;;12.40;45.40;;;;;;4993505;28;20449;-80
2023/01/24 12:06:00;;;;;;;20.07;13.10;;;12.30;45.60;;;;;;4995425;28;20441;-80
2023/01/24 12:08:37;;;;;;;17.83;12.90;;;12.20;46.10;;;;;;4988013;28;20444;-80
2023/01/24 12:11:11;;;;;;;18.43;11.83;;;12.20;46.10;;;;;;4998285;28;20468;-80
2023/01/24 12:14:10;;;;;;;20.80;13.80;;;12.30;46.00;;;;;;4998057;28;20429;-79
2023/01/24 12:16:45;;;;;;;18.37;12.40;;;12.30;45.80;;;;;;4991158;28;20496;-80
2023/01/24 12:19:27;;;;;;;21.53;13.53;;;12.40;45.80;;;;;;4990014;28;20454;-80
2023/01/24 12:21:55;;;;;;;16.33;12.00;;;12.30;45.20;;;;;;4997081;28;20476;-80
2023/01/24 12:24:25;;;;;;;18.40;13.23;;;12.30;45.80;;;;;;4998198;28;20437;-80
2023/01/24 12:26:57;;;;;;;20.07;13.03;;;12.30;45.30;;;;;;4990577;28;20545;-80
2023/01/24 12:29:27;;;;;;;20.13;12.90;;;12.20;45.50;;;;;;4995627;28;20461;-80
2023/01/24 12:31:58;;;;;;;21.57;13.60;;;12.10;45.70;;;;;;4997936;28;20444;-78
2023/01/24 12:34:33;;;;;;;18.77;13.30;;;12.00;45.70;;;;;;4991522;28;20445;-82
2023/01/24 12:37:02;;;;;;;17.43;12.40;;;12.00;45.80;;;;;;4994680;28;20473;-80
2023/01/24 12:39:34;;;;;;;19.67;13.43;;;12.10;46.00;;;;;;4993480;28;20461;-78
2023/01/24 12:42:07;;;;;;;21.67;13.53;;;12.10;45.20;;;;;;4989379;28;20466;-78
2023/01/24 12:44:38;;;;;;;20.40;13.40;;;12.10;45.40;;;;;;4990952;28;20444;-80
2023/01/24 12:47:26;;;;;;;20.67;13.33;;;12.10;45.30;;;;;;4997044;28;20441;-79
2023/01/24 12:50:00;;;;;;;18.07;12.77;;;12.10;45.30;;;;;;4995140;28;20465;-80
2023/01/24 12:52:31;;;;;;;18.00;12.30;;;12.00;45.20;;;;;;4989879;28;20460;-79
2023/01/24 12:55:02;;;;;;;18.30;11.70;;;12.00;45.10;;;;;;4997537;28;20450;-80
2023/01/24 12:57:36;;;;;;;18.03;11.83;;;12.00;45.30;;;;;;4985890;28;20477;-80
2023/01/24 13:00:04;;;;;;;16.23;11.70;;;12.00;45.10;;;;;;4985516;28;20465;-80
2023/01/24 13:02:45;;;;;;;21.00;11.60;;;12.10;45.60;;;;;;4996307;28;20450;-81
2023/01/24 13:05:21;;;;;;;16.73;11.47;;;12.10;45.40;;;;;;4988489;28;20448;-80
2023/01/24 13:07:55;;;;;;;16.60;11.67;;;12.10;45.50;;;;;;4996892;28;20437;-80
2023/01/24 13:10:26;;;;;;;14.87;10.87;;;12.10;45.50;;;;;;4991615;28;20476;-80
2023/01/24 13:12:56;;;;;;;15.60;10.70;;;12.10;45.00;;;;;;4995068;28;20442;-81
2023/01/24 13:15:25;;;;;;;15.13;10.47;;;12.00;45.10;;;;;;4996855;28;20476;-81
2023/01/24 13:18:05;;;;;;;16.47;10.23;;;12.00;45.70;;;;;;4989303;28;20480;-81
2023/01/24 13:20:45;;;;;;;22.03;14.60;;;12.00;45.80;;;;;;4976360;28;20477;-80